KARW

Beaufort County Airport

Beaufort, South Carolina, USA
METAR KARW 152215Z AUTO 20009G15KT 5SM HZ CLR 28/23 A3006 RMK AO2 LTG DSNT W
Observed Flight Rules
Aug-15 @ 22:15 UTC (11 minutes ago) Marginal Visual Flight Rules
Wind Visibility Clouds Conditions
200° at 9 knots
 Gusting to 15 knots
5 miles
  • Clear skies
  • Haze
Temperatures Readings
Current 28°C / 82°F
Dewpoint 23°C / 73°F
Humidity 74%
Altimeter 30.06" Hg
Pressure 1018 hPa
Elevation 4
METAR KARW 152215Z AUTO 20009G15KT 5SM HZ CLR 28/23 A3006 RMK AO2 LTG DSNT W
Observed Flight Rules
Aug-15 @ 22:15 UTC
(11 minutes ago)
MVFR
Wind Visibility
200° at 9 knots
 Gusting to 15 knots
5 miles
Clouds
  • Clear skies
Conditions
  • Haze
Temperature Dewpoint
28°C / 82°F 23°C / 73°F
Humidity Altimeter Pressure
74% 30.06" Hg 1018 hPa